METAR Data
IDs: Format: Raw Decoded Include TAF

Data at: 1730 UTC 20 May 2022

METAR for:KGUC (Gunnison Arpt, CO, US)
Text:KGUC 201656Z AUTO 24020G30KT 10SM CLR 12/M02 A2968 RMK AO2 PK WND 25032/1622 SLP965 T01221022
Temperature: 12.2°C ( 54°F)
Dewpoint: -2.2°C ( 28°F) [RH = 37%]
Pressure (altimeter):29.68 inches Hg (1005.2 mb) [Sea level pressure: 996.5 mb]
Winds:from the WSW (240 degrees) at 23 MPH (20 knots; 10.3 m/s) gusting to 34 MPH (30 knots; 15.4 m/s)
Visibility:10 or more sm (16+ km)
Ceiling:at least 12,000 feet AGL
Clouds:sky clear below 12,000 feet AGL
QC Flag:automated observation with no human augmentation